Time;durP1;ratioP1;P1;durP2;ratioP2;P2;SDS_P1;SDS_P2;PMS_P1;PMS_P2;Temp;Humidity;BMP_temperature;BMP_pressure;BME280_temperature;BME280_humidity;BME280_pressure;Samples;Min_cycle;Max_cycle;Signal;HPM_P1;HPM_P2
2023/01/02 00:01:29;;;;;;;99.78;53.65;;;256.30;2252.80;;;;;;5019159;28;20033;-79
2023/01/02 00:03:55;;;;;;;105.85;59.25;;;256.30;2252.80;;;;;;5019090;28;20029;-85
2023/01/02 00:06:21;;;;;;;101.75;59.55;;;256.20;2252.80;;;;;;5015359;28;20072;-86
2023/01/02 00:08:47;;;;;;;126.03;60.80;;;256.20;2252.80;;;;;;5036637;28;20491;-84
2023/01/02 00:11:13;;;;;;;110.43;60.88;;;256.60;2252.80;;;;;;5036698;28;20055;-85
2023/01/02 00:13:39;;;;;;;113.88;60.17;;;256.20;2252.80;;;;;;5037055;28;20054;-85
2023/01/02 00:16:05;;;;;;;86.05;50.08;;;256.10;2252.80;;;;;;5018708;28;20080;-85
2023/01/02 00:18:31;;;;;;;82.90;48.95;;;256.10;2252.80;;;;;;5018632;28;20030;-84
2023/01/02 00:21:01;;;;;;;83.15;49.15;;;231.30;2252.80;;;;;;5036231;28;20379;-85
2023/01/02 00:23:27;;;;;;;69.47;43.10;;;231.20;2252.80;;;;;;5018605;28;20029;-81
2023/01/02 00:25:53;;;;;;;74.63;44.47;;;231.00;2252.80;;;;;;5036382;28;20048;-85
2023/01/02 00:28:18;;;;;;;;;;;231.00;2252.80;;;;;;5019042;28;20112;-82
2023/01/02 00:30:44;;;;;;;77.72;48.00;;;230.90;2252.80;;;;;;5036709;28;20025;-83
2023/01/02 00:33:10;;;;;;;;;;;230.90;2252.80;;;;;;5018672;28;20545;-82
2023/01/02 00:35:37;;;;;;;82.35;48.08;;;230.90;2252.80;;;;;;5018376;28;19939;-83
2023/01/02 00:38:02;;;;;;;85.05;52.03;;;230.90;2252.80;;;;;;5018369;28;20040;-83
2023/01/02 00:40:28;;;;;;;82.60;52.03;;;231.00;2252.80;;;;;;5018462;28;20041;-81
2023/01/02 00:42:54;;;;;;;;;;;231.10;2252.80;;;;;;5017238;28;20063;-85
2023/01/02 00:45:19;;;;;;;135.15;68.03;;;231.10;2252.80;;;;;;5018272;28;19909;-84
2023/01/02 00:47:45;;;;;;;;;;;231.20;2252.80;;;;;;5019198;28;20539;-86
2023/01/02 00:50:11;;;;;;;81.53;51.95;;;231.10;2252.80;;;;;;5017955;28;20374;-85
2023/01/02 00:52:36;;;;;;;;;;;230.90;2252.80;;;;;;5019454;28;20025;-85
2023/01/02 00:55:02;;;;;;;119.65;67.47;;;230.90;2252.80;;;;;;5016618;28;19905;-85
2023/01/02 00:57:28;;;;;;;111.60;63.60;;;230.80;2252.80;;;;;;5019969;28;20030;-83
2023/01/02 00:59:54;;;;;;;130.95;71.53;;;230.90;2252.80;;;;;;5020566;28;20029;-85
2023/01/02 01:02:20;;;;;;;97.80;56.53;;;230.90;2252.80;;;;;;5019076;28;20533;-85
2023/01/02 01:04:45;;;;;;;;;;;230.90;2252.80;;;;;;5020561;28;20506;-82
2023/01/02 01:07:11;;;;;;;102.00;58.65;;;230.90;2252.80;;;;;;5020034;28;19913;-83
2023/01/02 01:09:36;;;;;;;;;;;230.90;2252.80;;;;;;5017734;28;20036;-85
2023/01/02 01:12:02;;;;;;;95.40;53.17;;;230.90;2252.80;;;;;;5041545;28;19909;-85
2023/01/02 01:14:28;;;;;;;;;;;230.90;2252.80;;;;;;5038764;28;20032;-82
2023/01/02 01:16:53;;;;;;;121.05;67.53;;;230.90;2252.80;;;;;;5021106;28;19909;-82
2023/01/02 01:19:19;;;;;;;;;;;230.80;2252.80;;;;;;5016868;28;20479;-84
2023/01/02 01:21:45;;;;;;;92.35;55.55;;;230.80;2252.80;;;;;;5012410;28;19905;-85
2023/01/02 01:24:10;;;;;;;;;;;230.80;2252.80;;;;;;5019096;28;20048;-85
2023/01/02 01:26:36;;;;;;;81.60;50.90;;;230.90;2252.80;;;;;;5018248;28;20290;-86
2023/01/02 01:29:02;;;;;;;83.07;53.28;;;230.90;2252.80;;;;;;5017962;28;20033;-85
2023/01/02 01:31:28;;;;;;;88.22;51.95;;;230.90;2252.80;;;;;;5020541;28;20033;-85
2023/01/02 01:33:54;;;;;;;88.20;53.40;;;230.90;2252.80;;;;;;5017834;28;20471;-80
2023/01/02 01:36:25;;;;;;;85.35;52.45;;;230.90;2252.80;;;;;;5017061;28;20032;-80
2023/01/02 01:38:50;;;;;;;90.97;53.63;;;230.90;2252.80;;;;;;5017632;28;20098;-82
2023/01/02 01:41:19;;;;;;;79.93;50.13;;;230.90;2252.80;;;;;;5017466;28;20083;-82
2023/01/02 01:43:51;;;;;;;83.32;52.08;;;230.90;2252.80;;;;;;5035183;28;20025;-81
2023/01/02 01:46:35;;;;;;;81.88;52.10;;;230.80;2252.80;;;;;;5017500;28;20021;-82
2023/01/02 01:49:13;;;;;;;78.18;48.60;;;230.80;2252.80;;;;;;5006987;28;20038;-82
2023/01/02 01:52:05;;;;;;;82.63;49.72;;;230.80;2252.80;;;;;;5012150;28;20141;-82
2023/01/02 01:54:35;;;;;;;88.25;52.17;;;230.80;2252.80;;;;;;4933950;29;20035;-81
2023/01/02 01:57:10;;;;;;;75.22;47.35;;;230.80;2252.80;;;;;;4962904;28;20581;-82
2023/01/02 01:59:36;;;;;;;73.20;47.28;;;230.60;2252.80;;;;;;4970716;28;20035;-82
2023/01/02 02:02:01;;;;;;;76.18;48.10;;;230.50;2252.80;;;;;;4974546;28;20062;-81
2023/01/02 02:04:27;;;;;;;;;;;230.40;2252.80;;;;;;4958398;28;20034;-82
2023/01/02 02:06:53;;;;;;;75.22;45.83;;;205.70;2252.80;;;;;;4957461;28;19925;-82
2023/01/02 02:09:37;;;;;;;79.50;45.20;;;205.70;2252.80;;;;;;4973503;28;20086;-81
2023/01/02 02:12:05;;;;;;;77.28;47.85;;;205.40;2252.80;;;;;;4957655;28;20039;-80
2023/01/02 02:14:31;;;;;;;81.75;49.85;;;205.50;2252.80;;;;;;4957689;28;20023;-79
2023/01/02 02:17:23;;;;;;;71.82;47.20;;;205.40;2252.80;;;;;;4957715;28;20607;-82
2023/01/02 02:20:03;;;;;;;75.93;46.70;;;205.50;2252.80;;;;;;4974037;28;20026;-81
2023/01/02 02:22:34;;;;;;;79.65;48.08;;;205.60;2252.80;;;;;;4956876;28;20035;-82
2023/01/02 02:25:09;;;;;;;76.53;45.85;;;205.40;2252.80;;;;;;4957242;28;20038;-80
2023/01/02 02:28:02;;;;;;;77.40;48.13;;;205.20;2252.80;;;;;;4957673;28;20038;-82
2023/01/02 02:30:39;;;;;;;72.00;46.67;;;205.30;2252.80;;;;;;4955850;28;20524;-82
2023/01/02 02:33:11;;;;;;;71.35;44.47;;;205.30;2252.80;;;;;;5009801;28;20130;-82
2023/01/02 02:36:03;;;;;;;70.35;46.08;;;205.20;2252.80;;;;;;4986327;28;20023;-80
2023/01/02 02:38:31;;;;;;;77.10;47.38;;;205.30;2252.80;;;;;;4995116;28;20110;-79
2023/01/02 02:41:19;;;;;;;80.82;44.17;;;205.30;2252.80;;;;;;5014612;28;20022;-81
2023/01/02 02:44:01;;;;;;;70.05;44.40;;;205.40;2252.80;;;;;;5012381;28;20021;-82
2023/01/02 02:46:44;;;;;;;72.15;44.58;;;205.40;2252.80;;;;;;5006251;28;20026;-82
2023/01/02 02:49:39;;;;;;;77.85;48.90;;;205.40;2252.80;;;;;;5009753;28;20034;-81
2023/01/02 02:52:22;;;;;;;69.22;44.53;;;205.30;2252.80;;;;;;4988571;28;20038;-81
2023/01/02 02:55:07;;;;;;;65.95;42.53;;;205.20;2252.80;;;;;;4995147;28;20096;-82
2023/01/02 02:57:34;;;;;;;59.47;40.00;;;205.20;2252.80;;;;;;5012663;28;20042;-83
2023/01/02 03:00:07;;;;;;;67.60;42.22;;;205.00;2252.80;;;;;;5014198;28;20026;-82
2023/01/02 03:02:32;;;;;;;69.28;43.88;;;205.00;2252.80;;;;;;4996598;28;20045;-80
2023/01/02 03:05:01;;;;;;;;;;;205.00;2252.80;;;;;;4991720;28;20069;-78
2023/01/02 03:07:40;;;;;;;63.17;40.90;;;205.00;2252.80;;;;;;5013025;28;20363;-82
2023/01/02 03:10:28;;;;;;;68.53;42.88;;;205.00;2252.80;;;;;;4994241;28;20038;-81
2023/01/02 03:12:59;;;;;;;68.40;41.83;;;205.10;2252.80;;;;;;5012581;28;20033;-77
2023/01/02 03:15:36;;;;;;;74.25;44.80;;;205.10;2252.80;;;;;;5012664;28;20029;-77
2023/01/02 03:18:16;;;;;;;74.22;45.40;;;205.20;2252.80;;;;;;5013113;28;20024;-81
2023/01/02 03:20:55;;;;;;;72.72;45.50;;;205.10;2252.80;;;;;;5013076;28;20036;-77
2023/01/02 03:23:24;;;;;;;78.00;45.03;;;205.00;2252.80;;;;;;5007495;28;20065;-77
2023/01/02 03:25:50;;;;;;;70.28;46.13;;;205.10;2252.80;;;;;;5013132;28;20026;-81
2023/01/02 03:28:18;;;;;;;76.28;44.85;;;205.10;2252.80;;;;;;5013308;28;20038;-76
2023/01/02 03:30:46;;;;;;;72.45;45.38;;;205.10;2252.80;;;;;;4994977;28;20038;-77
2023/01/02 03:33:23;;;;;;;72.97;46.50;;;205.10;2252.80;;;;;;4995253;28;20033;-77
2023/01/02 03:35:54;;;;;;;;;;;205.10;2252.80;;;;;;4995023;28;20034;-76
2023/01/02 03:38:27;;;;;;;67.13;41.28;;;205.20;2252.80;;;;;;4995239;28;19920;-76
2023/01/02 03:41:04;;;;;;;72.93;45.65;;;205.10;2252.80;;;;;;4994766;28;20480;-76
2023/01/02 03:43:31;;;;;;;74.45;46.53;;;205.10;2252.80;;;;;;4994953;28;20032;-77
2023/01/02 03:46:04;;;;;;;67.97;43.20;;;205.00;2252.80;;;;;;4995414;28;20025;-82
2023/01/02 03:48:52;;;;;;;69.78;43.05;;;205.20;2252.80;;;;;;4994868;28;20448;-77
2023/01/02 03:51:18;;;;;;;69.65;42.75;;;205.40;2252.80;;;;;;5012668;28;20022;-77
2023/01/02 03:53:45;;;;;;;68.15;44.10;;;205.60;2252.80;;;;;;4994657;28;20392;-80
2023/01/02 03:56:23;;;;;;;68.50;43.55;;;205.60;2252.80;;;;;;5005902;28;20113;-76
2023/01/02 03:59:14;;;;;;;65.50;42.80;;;205.70;2252.80;;;;;;5014581;28;20034;-77
2023/01/02 04:01:39;;;;;;;70.05;45.25;;;205.70;2252.80;;;;;;5014880;28;20022;-78
2023/01/02 04:04:40;;;;;;;68.30;45.05;;;205.70;2252.80;;;;;;5014875;28;20022;-80
2023/01/02 04:07:12;;;;;;;70.22;45.67;;;205.50;2252.80;;;;;;4916929;29;20035;-79
2023/01/02 04:09:40;;;;;;;69.47;45.33;;;205.50;2252.80;;;;;;4917179;29;20046;-78
2023/01/02 04:12:15;;;;;;;72.00;44.40;;;205.40;2252.80;;;;;;4916987;29;20036;-80
2023/01/02 04:14:48;;;;;;;78.88;48.53;;;205.40;2252.80;;;;;;4917399;29;20035;-81
2023/01/02 04:17:16;;;;;;;74.72;49.78;;;205.20;2252.80;;;;;;4917474;29;20050;-76
2023/01/02 04:19:51;;;;;;;79.72;50.95;;;205.10;2252.80;;;;;;4936894;29;20031;-81
2023/01/02 04:22:23;;;;;;;78.47;48.95;;;205.00;2252.80;;;;;;4920920;29;20482;-81
2023/01/02 04:24:54;;;;;;;94.55;53.28;;;204.80;2252.80;;;;;;4936350;29;20514;-77
2023/01/02 04:27:25;;;;;;;91.22;52.70;;;180.10;2252.80;;;;;;4936575;29;20028;-78
2023/01/02 04:29:51;;;;;;;95.00;54.05;;;180.10;2252.80;;;;;;4920403;29;20024;-77
2023/01/02 04:32:45;;;;;;;103.05;52.28;;;179.90;2252.80;;;;;;4920338;29;20118;-77
2023/01/02 04:35:19;;;;;;;96.72;52.08;;;179.80;2252.80;;;;;;4918712;29;20031;-77
2023/01/02 04:37:46;;;;;;;95.80;54.00;;;179.70;2252.80;;;;;;4915265;29;20040;-77
2023/01/02 04:40:22;;;;;;;95.28;51.53;;;179.60;2252.80;;;;;;4920339;29;20051;-80
2023/01/02 04:42:48;;;;;;;107.70;55.28;;;179.60;2252.80;;;;;;4939631;28;20530;-76
2023/01/02 04:45:13;;;;;;;;;;;179.70;2252.80;;;;;;5016453;28;20113;-77
2023/01/02 04:47:39;;;;;;;89.50;51.97;;;179.70;2252.80;;;;;;5017948;28;19913;-78
2023/01/02 04:50:05;;;;;;;;;;;179.90;2252.80;;;;;;5017936;28;20455;-77
2023/01/02 04:52:31;;;;;;;101.22;52.88;;;180.00;2252.80;;;;;;5017749;28;20355;-79
2023/01/02 04:54:56;;;;;;;;;;;180.10;2252.80;;;;;;5018195;28;20021;-77
2023/01/02 04:57:22;;;;;;;86.15;51.55;;;180.10;2252.80;;;;;;5035542;28;20008;-83
2023/01/02 04:59:48;;;;;;;;;;;180.10;2252.80;;;;;;5036124;28;20483;-78
2023/01/02 05:02:14;;;;;;;83.55;49.53;;;180.10;2252.80;;;;;;5017487;28;20417;-77
2023/01/02 05:04:39;;;;;;;;;;;180.10;2252.80;;;;;;5017258;28;20037;-77
2023/01/02 05:07:05;;;;;;;87.85;52.08;;;180.10;2252.80;;;;;;5017411;28;19909;-77
2023/01/02 05:09:31;;;;;;;87.65;51.85;;;180.10;2252.80;;;;;;5017775;28;20156;-82
2023/01/02 05:11:56;;;;;;;;;;;180.10;2252.80;;;;;;5017820;28;20496;-77
2023/01/02 05:14:22;;;;;;;89.80;52.65;;;204.80;2252.80;;;;;;5017413;28;19905;-82
2023/01/02 05:16:48;;;;;;;;;;;180.10;2252.80;;;;;;5017721;28;20037;-76
2023/01/02 05:19:14;;;;;;;89.68;50.97;;;180.10;2252.80;;;;;;5017587;28;19909;-77
2023/01/02 05:24:25;;;;;;;95.45;54.13;;;204.90;2252.80;;;;;;5035174;28;20362;-83
2023/01/02 05:26:50;;;;;;;100.47;56.78;;;204.80;2252.80;;;;;;5017475;28;20128;-77
2023/01/02 05:29:16;;;;;;;;;;;180.10;2252.80;;;;;;5034602;28;20121;-78
2023/01/02 05:31:41;;;;;;;99.95;54.33;;;180.00;2252.80;;;;;;5017198;28;19905;-77
2023/01/02 05:34:09;;;;;;;;;;;180.00;2252.80;;;;;;5035470;28;20048;-82
2023/01/02 05:36:35;;;;;;;98.65;53.25;;;180.10;2252.80;;;;;;5017283;28;19909;-77
2023/01/02 05:39:01;;;;;;;;;;;180.10;2252.80;;;;;;5017970;28;20080;-83
2023/01/02 05:41:26;;;;;;;94.55;50.50;;;204.90;2252.80;;;;;;5021441;28;19905;-83
2023/01/02 05:43:53;;;;;;;91.30;52.45;;;205.00;2252.80;;;;;;5019900;28;20164;-83
2023/01/02 05:46:20;;;;;;;85.57;53.30;;;204.90;2252.80;;;;;;5034322;28;20498;-77
2023/01/02 05:48:46;;;;;;;87.30;50.97;;;205.00;2252.80;;;;;;5016547;28;20041;-82
2023/01/02 05:51:13;;;;;;;;;;;204.90;2252.80;;;;;;5016720;28;20124;-79
2023/01/02 05:53:39;;;;;;;66.38;39.90;;;204.90;2252.80;;;;;;5016514;28;19906;-77
2023/01/02 05:56:13;;;;;;;88.53;48.90;;;180.10;2252.80;;;;;;5016286;28;20041;-77
2023/01/02 05:58:41;;;;;;;79.88;48.55;;;180.10;2252.80;;;;;;5016545;28;20026;-83
2023/01/02 06:01:13;;;;;;;86.78;48.95;;;180.10;2252.80;;;;;;5016389;28;20116;-84
2023/01/02 06:03:42;;;;;;;84.10;49.92;;;204.80;2252.80;;;;;;5034281;28;20480;-82
2023/01/02 06:06:10;;;;;;;81.63;48.13;;;204.80;2252.80;;;;;;5016322;28;20052;-81
2023/01/02 06:08:37;;;;;;;92.70;50.30;;;204.80;2252.80;;;;;;5016419;28;20041;-83
2023/01/02 06:11:04;;;;;;;84.72;49.47;;;204.90;2252.80;;;;;;5016457;28;20097;-77
2023/01/02 06:13:32;;;;;;;87.18;50.38;;;204.90;2252.80;;;;;;5033106;28;20037;-77
2023/01/02 06:15:59;;;;;;;94.10;50.67;;;204.80;2252.80;;;;;;5016457;28;20057;-77
2023/01/02 06:18:25;;;;;;;82.43;49.67;;;205.00;2252.80;;;;;;5034179;28;20057;-78
2023/01/02 06:20:51;;;;;;;79.90;47.03;;;204.90;2252.80;;;;;;5016359;28;20030;-84
2023/01/02 06:23:17;;;;;;;85.65;50.30;;;204.90;2252.80;;;;;;5016329;28;20029;-81
2023/01/02 06:25:43;;;;;;;;;;;204.80;2252.80;;;;;;5034243;28;20029;-82
2023/01/02 06:28:08;;;;;;;91.22;52.15;;;204.80;2252.80;;;;;;5016286;28;19923;-77
2023/01/02 06:30:34;;;;;;;90.53;51.28;;;180.10;2252.80;;;;;;5016631;28;20022;-84
2023/01/02 06:33:00;;;;;;;;;;;180.10;2252.80;;;;;;5034427;28;20395;-78
2023/01/02 06:35:25;;;;;;;94.00;51.17;;;180.00;2252.80;;;;;;5015553;28;19955;-77
2023/01/02 06:37:51;;;;;;;;;;;180.00;2252.80;;;;;;5016751;28;20461;-79
2023/01/02 06:40:17;;;;;;;89.03;49.03;;;180.10;2252.80;;;;;;5015631;28;19936;-80
2023/01/02 06:42:43;;;;;;;;;;;204.80;2252.80;;;;;;5014904;28;20103;-77
2023/01/02 06:45:09;;;;;;;94.70;52.72;;;180.10;2252.80;;;;;;5015630;28;19912;-78
2023/01/02 06:47:35;;;;;;;89.22;51.83;;;180.10;2252.80;;;;;;5016137;28;20028;-76
2023/01/02 06:50:00;;;;;;;;;;;204.80;2252.80;;;;;;4994880;28;20033;-78
2023/01/02 06:52:27;;;;;;;95.43;53.45;;;204.80;2252.80;;;;;;5012867;28;20379;-77
2023/01/02 06:54:53;;;;;;;105.40;57.58;;;204.90;2252.80;;;;;;4994126;28;20025;-78
2023/01/02 06:57:19;;;;;;;;;;;204.90;2252.80;;;;;;4995132;28;20045;-90
2023/01/02 06:59:44;;;;;;;98.88;51.38;;;204.90;2252.80;;;;;;4996331;28;19909;-88
2023/01/02 07:02:10;;;;;;;;;;;204.80;2252.80;;;;;;5021622;28;20033;-83
2023/01/02 07:04:36;;;;;;;94.63;52.47;;;204.80;2252.80;;;;;;4996741;28;19928;-88
2023/01/02 07:07:02;;;;;;;;;;;205.00;2252.80;;;;;;4998760;28;20034;-83
2023/01/02 07:09:28;;;;;;;99.20;54.70;;;205.00;2252.80;;;;;;4996660;28;20362;-86
2023/01/02 07:11:53;;;;;;;;;;;205.00;2252.80;;;;;;5022089;28;20026;-80
2023/01/02 07:14:19;;;;;;;92.35;53.28;;;205.10;2252.80;;;;;;5013979;28;19905;-80
2023/01/02 07:16:44;;;;;;;;;;;205.10;2252.80;;;;;;5016036;28;20511;-82
2023/01/02 07:19:10;;;;;;;113.63;58.55;;;205.10;2252.80;;;;;;4999024;28;19909;-82
2023/01/02 07:21:36;;;;;;;;;;;205.20;2252.80;;;;;;4997332;28;20036;-81
2023/01/02 07:24:01;;;;;;;106.25;56.20;;;205.20;2252.80;;;;;;4997919;28;20330;-82
2023/01/02 07:26:27;;;;;;;;;;;205.20;2252.80;;;;;;5002549;28;20026;-81
2023/01/02 07:28:53;;;;;;;105.00;55.90;;;205.30;2252.80;;;;;;4998272;28;19928;-91
2023/01/02 07:31:19;;;;;;;;;;;205.40;2252.80;;;;;;4997772;28;20026;-82
2023/01/02 07:33:45;;;;;;;101.63;54.10;;;205.50;2252.80;;;;;;4998754;28;19905;-79
2023/01/02 07:36:14;;;;;;;99.72;53.97;;;205.50;2252.80;;;;;;4999069;28;20037;-80
2023/01/02 07:38:40;;;;;;;93.85;54.28;;;205.50;2252.80;;;;;;4996389;28;20030;-89
2023/01/02 07:41:16;;;;;;;;;;;205.60;2252.80;;;;;;4996282;28;20041;-82
2023/01/02 07:43:43;;;;;;;90.70;51.10;;;205.70;2252.80;;;;;;4988766;28;20012;-82
2023/01/02 07:46:09;;;;;;;97.95;52.20;;;205.70;2252.80;;;;;;4998738;28;20107;-81
2023/01/02 07:48:34;;;;;;;96.10;50.88;;;205.70;2252.80;;;;;;5003807;28;20500;-80
2023/01/02 07:51:02;;;;;;;86.22;50.15;;;230.40;2252.80;;;;;;4999815;28;20033;-80
2023/01/02 07:53:28;;;;;;;96.57;50.10;;;230.40;2252.80;;;;;;4998122;28;20484;-79
2023/01/02 07:55:55;;;;;;;91.97;48.65;;;230.60;2252.80;;;;;;5015475;28;20080;-83
2023/01/02 07:58:21;;;;;;;83.15;47.53;;;230.60;2252.80;;;;;;5056931;28;20132;-79
2023/01/02 08:00:47;;;;;;;84.70;49.05;;;230.60;2252.80;;;;;;5056228;28;20021;-80
2023/01/02 08:03:12;;;;;;;;;;;230.60;2252.80;;;;;;5038327;28;20498;-79
2023/01/02 08:05:38;;;;;;;83.10;48.30;;;230.60;2252.80;;;;;;5038012;28;19912;-79
2023/01/02 08:08:03;;;;;;;;;;;230.60;2252.80;;;;;;5056138;28;20126;-79
2023/01/02 08:10:29;;;;;;;87.00;44.97;;;230.60;2252.80;;;;;;5055839;28;19920;-79
2023/01/02 08:12:56;;;;;;;77.25;45.35;;;230.60;2252.80;;;;;;5055834;28;20029;-80
2023/01/02 08:15:23;;;;;;;81.40;45.85;;;230.60;2252.80;;;;;;5038522;28;20029;-78
2023/01/02 08:17:48;;;;;;;81.47;46.35;;;230.60;2252.80;;;;;;5046974;28;20032;-81
2023/01/02 08:20:15;;;;;;;82.10;47.03;;;230.80;2252.80;;;;;;5056168;28;20029;-84
2023/01/02 08:22:41;;;;;;;78.93;44.88;;;230.80;2252.80;;;;;;5038802;28;20064;-85
2023/01/02 08:25:08;;;;;;;82.15;44.05;;;230.80;2252.80;;;;;;5037487;28;20064;-81
2023/01/02 08:27:34;;;;;;;82.20;48.58;;;230.80;2252.80;;;;;;5038640;28;20055;-85
2023/01/02 08:29:59;;;;;;;84.25;49.40;;;230.90;2252.80;;;;;;5056359;28;20467;-85
2023/01/02 08:32:25;;;;;;;;;;;231.00;2252.80;;;;;;5038265;28;20025;-91
2023/01/02 08:34:51;;;;;;;74.53;42.72;;;231.10;2252.80;;;;;;5056137;28;19943;-85
2023/01/02 08:37:16;;;;;;;;;;;231.20;2252.80;;;;;;5039534;28;20445;-92
2023/01/02 08:39:42;;;;;;;75.78;44.15;;;231.20;2252.80;;;;;;5056899;28;19940;-87
2023/01/02 08:42:08;;;;;;;;;;;231.20;2252.80;;;;;;5038592;28;20068;-90
2023/01/02 08:44:36;;;;;;;73.63;40.53;;;231.30;2252.80;;;;;;5057540;28;19958;-87
2023/01/02 08:47:03;;;;;;;79.55;44.70;;;231.30;2252.80;;;;;;5056290;28;20025;-89
2023/01/02 08:49:28;;;;;;;68.60;42.90;;;256.00;2252.80;;;;;;5027087;28;20037;-90
2023/01/02 08:51:54;;;;;;;75.20;42.38;;;256.20;2252.80;;;;;;5033398;28;20035;-86
2023/01/02 08:54:20;;;;;;;74.10;43.67;;;256.30;2252.80;;;;;;5055865;28;20055;-83
2023/01/02 08:56:47;;;;;;;75.03;45.88;;;256.30;2252.80;;;;;;5036912;28;20037;-92
2023/01/02 08:59:13;;;;;;;72.22;43.47;;;256.30;2252.80;;;;;;5056708;28;20036;-80
2023/01/02 09:01:39;;;;;;;71.03;42.75;;;256.40;2252.80;;;;;;5053048;28;20041;-82
2023/01/02 09:04:06;;;;;;;73.18;43.72;;;256.50;2252.80;;;;;;5036696;28;20558;-87
2023/01/02 09:06:34;;;;;;;69.93;44.55;;;256.60;2252.80;;;;;;5037055;28;20379;-82
2023/01/02 09:09:00;;;;;;;72.95;43.70;;;256.80;2252.80;;;;;;5055354;28;20041;-81
2023/01/02 09:11:32;;;;;;;69.60;42.00;;;256.90;2252.80;;;;;;5037264;28;20083;-85
2023/01/02 09:13:59;;;;;;;78.78;45.17;;;281.60;2278.40;;;;;;5033496;28;20038;-85
2023/01/02 09:16:26;;;;;;;83.25;49.03;;;281.60;2278.40;;;;;;5055317;28;20086;-87
2023/01/02 09:18:53;;;;;;;78.20;45.58;;;281.70;2278.40;;;;;;5036441;28;20087;-83
2023/01/02 09:21:19;;;;;;;70.47;43.60;;;281.80;2278.40;;;;;;5037149;28;20082;-82
2023/01/02 09:23:45;;;;;;;74.65;44.10;;;281.90;2278.40;;;;;;5036950;28;20029;-79
2023/01/02 09:26:12;;;;;;;73.75;45.20;;;282.00;2278.40;;;;;;5037436;28;20032;-83
2023/01/02 09:28:39;;;;;;;73.97;44.03;;;282.00;2278.40;;;;;;5038068;28;20068;-83
2023/01/02 09:31:07;;;;;;;75.40;43.17;;;282.20;2278.40;;;;;;5037925;28;20025;-82
2023/01/02 09:33:32;;;;;;;75.93;43.03;;;282.40;2278.40;;;;;;5037446;28;20029;-82
2023/01/02 09:36:07;;;;;;;68.38;40.78;;;282.50;2278.40;;;;;;5048411;28;20487;-83
2023/01/02 09:38:33;;;;;;;68.07;41.65;;;307.30;2304.00;;;;;;5037765;28;20044;-83
2023/01/02 09:41:02;;;;;;;67.85;42.20;;;307.50;2304.00;;;;;;5055127;28;20032;-82
2023/01/02 09:43:42;;;;;;;67.97;41.17;;;307.70;2304.00;;;;;;5037348;28;20025;-83
2023/01/02 09:46:39;;;;;;;63.15;40.53;;;307.80;2304.00;;;;;;5055271;28;20025;-79
2023/01/02 09:49:06;;;;;;;74.80;40.67;;;308.00;2304.00;;;;;;5034508;28;20087;-90
2023/01/02 09:51:33;;;;;;;66.70;42.17;;;308.10;2304.00;;;;;;5037301;28;20025;-86
2023/01/02 09:53:59;;;;;;;67.05;40.80;;;332.80;2329.60;;;;;;5037567;28;20514;-79
2023/01/02 09:56:35;;;;;;;66.20;40.72;;;332.90;2329.60;;;;;;5054562;28;20052;-83
2023/01/02 09:59:20;;;;;;;60.97;34.17;;;333.10;2329.60;;;;;;5037296;28;20029;-77
2023/01/02 10:02:05;;;;;;;64.78;39.53;;;333.20;2329.60;;;;;;5021341;28;20041;-86
2023/01/02 10:04:52;;;;;;;66.32;38.97;;;333.30;2329.60;;;;;;5034115;28;20104;-78
2023/01/02 10:07:41;;;;;;;63.45;38.25;;;333.40;2329.60;;;;;;5036704;28;20037;-82
2023/01/02 10:10:30;;;;;;;60.55;39.22;;;333.70;2329.60;;;;;;5026706;28;20057;-79
2023/01/02 10:13:08;;;;;;;68.68;39.35;;;358.40;2329.60;;;;;;5036579;28;20107;-78
2023/01/02 10:15:35;;;;;;;60.38;37.88;;;358.40;2329.60;;;;;;5036277;28;20022;-78
2023/01/02 10:18:28;;;;;;;58.95;36.20;;;358.40;2329.60;;;;;;5036230;28;20025;-84
2023/01/02 10:21:09;;;;;;;60.50;36.13;;;358.80;2329.60;;;;;;5011650;28;20029;-83
2023/01/02 10:24:00;;;;;;;53.13;35.53;;;359.20;2329.60;;;;;;5035917;28;20039;-79
2023/01/02 10:26:38;;;;;;;52.65;35.42;;;384.10;2329.60;;;;;;5053460;28;20128;-80
2023/01/02 10:29:24;;;;;;;64.88;38.33;;;384.50;2329.60;;;;;;5036616;28;20116;-80
2023/01/02 10:32:00;;;;;;;54.43;36.53;;;384.70;2329.60;;;;;;5054452;28;20071;-81
2023/01/02 10:34:45;;;;;;;55.93;37.93;;;384.70;2329.60;;;;;;5054687;28;20471;-84
2023/01/02 10:37:15;;;;;;;56.08;34.92;;;384.70;2329.60;;;;;;5054098;28;20029;-84
2023/01/02 10:39:43;;;;;;;58.58;35.83;;;384.90;2329.60;;;;;;5037040;28;20021;-85
2023/01/02 10:42:14;;;;;;;54.17;35.67;;;384.90;2329.60;;;;;;5054255;28;20024;-81
2023/01/02 10:44:41;;;;;;;56.33;34.22;;;384.90;2329.60;;;;;;5033365;28;20032;-83
2023/01/02 10:47:16;;;;;;;48.10;32.08;;;384.90;2329.60;;;;;;5036401;28;20029;-84
2023/01/02 10:49:43;;;;;;;47.97;30.50;;;409.60;2355.20;;;;;;5052128;28;20040;-87
2023/01/02 10:52:33;;;;;;;51.67;31.30;;;409.60;2355.20;;;;;;5035769;28;20120;-84
2023/01/02 10:54:59;;;;;;;50.78;31.75;;;409.70;2355.20;;;;;;5034617;28;20403;-87
2023/01/02 10:57:44;;;;;;;41.28;30.92;;;410.20;2355.20;;;;;;5035514;28;20040;-84
2023/01/02 11:00:30;;;;;;;48.47;32.13;;;410.00;2355.20;;;;;;5050567;28;20029;-78
2023/01/02 11:03:16;;;;;;;43.53;28.70;;;409.90;2355.20;;;;;;5046114;28;20104;-81
2023/01/02 11:05:51;;;;;;;47.55;29.70;;;410.20;2355.20;;;;;;5031360;28;20026;-83
2023/01/02 11:08:20;;;;;;;41.13;26.92;;;410.20;2355.20;;;;;;5033375;28;20041;-82
2023/01/02 11:10:47;;;;;;;43.80;29.40;;;410.20;2355.20;;;;;;5025827;28;20124;-82
2023/01/02 11:13:18;;;;;;;48.25;28.02;;;410.10;2355.20;;;;;;5035508;28;20017;-81
2023/01/02 11:16:04;;;;;;;41.28;26.27;;;410.00;2355.20;;;;;;5035330;28;20017;-80
2023/01/02 11:18:33;;;;;;;39.35;26.00;;;410.00;2355.20;;;;;;5034802;28;20033;-80
2023/01/02 11:21:03;;;;;;;39.55;26.75;;;410.10;2355.20;;;;;;5034672;28;20562;-84
2023/01/02 11:23:35;;;;;;;40.85;25.67;;;410.20;2355.20;;;;;;5035587;28;20108;-83
2023/01/02 11:26:02;;;;;;;36.78;25.35;;;410.20;2355.20;;;;;;5035778;28;20028;-83
2023/01/02 11:28:32;;;;;;;40.97;26.15;;;410.20;2355.20;;;;;;5037542;28;20037;-79
2023/01/02 11:31:04;;;;;;;37.33;25.33;;;410.20;2355.20;;;;;;5039350;28;20075;-83
2023/01/02 11:33:33;;;;;;;41.67;24.60;;;410.00;2355.20;;;;;;5057161;28;20078;-82
2023/01/02 11:36:13;;;;;;;38.15;24.15;;;409.90;2355.20;;;;;;5039357;28;20545;-82
2023/01/02 11:38:48;;;;;;;37.53;25.23;;;409.90;2355.20;;;;;;5039225;28;20032;-81
2023/01/02 11:44:28;;;;;;;35.65;24.00;;;410.10;2355.20;;;;;;5056898;28;20131;-80
2023/01/02 11:46:54;;;;;;;41.85;26.48;;;410.10;2355.20;;;;;;5029367;28;20144;-80
2023/01/02 11:49:25;;;;;;;41.38;25.90;;;410.00;2355.20;;;;;;5038451;28;20095;-79
2023/01/02 11:51:58;;;;;;;41.45;27.38;;;409.90;2355.20;;;;;;5038299;28;20035;-80
2023/01/02 11:54:45;;;;;;;40.35;28.17;;;409.90;2355.20;;;;;;5056431;28;20467;-80
2023/01/02 11:57:29;;;;;;;44.30;26.65;;;409.80;2355.20;;;;;;5037175;28;20119;-81
2023/01/02 11:59:57;;;;;;;42.05;27.33;;;409.90;2355.20;;;;;;5032415;28;20037;-80
2023/01/02 12:02:35;;;;;;;40.50;25.92;;;409.90;2355.20;;;;;;5031796;28;20059;-80
2023/01/02 12:05:01;;;;;;;42.33;26.85;;;409.90;2355.20;;;;;;5044718;28;20558;-81
2023/01/02 12:07:51;;;;;;;37.70;26.38;;;410.00;2355.20;;;;;;5038295;28;20029;-81
2023/01/02 12:10:48;;;;;;;34.08;24.40;;;409.90;2355.20;;;;;;5036821;28;20120;-78
2023/01/02 12:13:44;;;;;;;39.60;26.52;;;409.70;2355.20;;;;;;5035838;28;20052;-78
2023/01/02 12:16:16;;;;;;;41.13;24.95;;;409.70;2355.20;;;;;;5034483;28;20063;-78
2023/01/02 12:18:44;;;;;;;38.58;24.25;;;409.70;2355.20;;;;;;5038688;28;20083;-77
2023/01/02 12:21:13;;;;;;;33.42;23.48;;;409.70;2355.20;;;;;;5054903;28;20021;-76
2023/01/02 12:23:41;;;;;;;37.95;24.08;;;409.70;2355.20;;;;;;5055876;28;20025;-80
2023/01/02 12:26:19;;;;;;;38.22;24.17;;;409.70;2355.20;;;;;;5038183;28;20112;-79
2023/01/02 12:28:54;;;;;;;33.10;23.33;;;409.70;2355.20;;;;;;5037319;28;20094;-81
2023/01/02 12:31:45;;;;;;;53.90;33.13;;;409.60;2355.20;;;;;;5038080;28;20025;-81
2023/01/02 12:34:32;;;;;;;53.08;33.20;;;409.60;2355.20;;;;;;5028427;28;20071;-82